createdAt,value
2018-12-10T00:01:08.370Z,4.73
2018-12-10T00:03:40.017Z,4.10
2018-12-10T00:06:11.275Z,4.63
2018-12-10T00:08:42.427Z,5.43
2018-12-10T00:11:13.838Z,5.00
2018-12-10T00:13:44.787Z,4.80
2018-12-10T00:16:15.921Z,4.20
2018-12-10T00:18:46.796Z,5.43
2018-12-10T00:21:17.260Z,5.43
2018-12-10T00:23:48.359Z,5.67
2018-12-10T00:26:19.936Z,4.63
2018-12-10T00:28:51.963Z,5.47
2018-12-10T00:31:23.570Z,4.20
2018-12-10T00:33:55.272Z,4.57
2018-12-10T00:36:28.154Z,4.70
2018-12-10T00:38:58.967Z,5.07
2018-12-10T00:41:29.800Z,4.50
2018-12-10T00:44:00.599Z,5.20
2018-12-10T00:46:31.448Z,5.60
2018-12-10T00:49:03.451Z,5.27
2018-12-10T00:51:34.582Z,6.20
2018-12-10T00:54:05.918Z,5.33
2018-12-10T00:56:36.948Z,5.57
2018-12-10T00:59:09.327Z,5.33
2018-12-10T01:01:41.379Z,6.90
2018-12-10T01:04:12.594Z,6.90
2018-12-10T01:06:44.043Z,6.87
2018-12-10T01:09:15.383Z,6.20
2018-12-10T01:11:46.797Z,6.17
2018-12-10T01:14:18.363Z,5.70
2018-12-10T01:16:49.747Z,5.70
2018-12-10T01:19:21.391Z,5.57
2018-12-10T01:21:52.839Z,5.33
2018-12-10T01:24:23.962Z,5.97
2018-12-10T01:26:55.103Z,4.70
2018-12-10T01:29:26.646Z,5.00
2018-12-10T01:31:57.121Z,5.67
2018-12-10T01:34:27.928Z,4.03
2018-12-10T01:36:59.638Z,4.50
2018-12-10T01:39:30.390Z,4.73
2018-12-10T01:42:01.965Z,5.60
2018-12-10T01:44:33.644Z,4.67
2018-12-10T01:47:05.121Z,5.10
2018-12-10T01:49:35.962Z,5.30
2018-12-10T01:52:07.783Z,4.90
2018-12-10T01:54:40.065Z,5.20
2018-12-10T01:57:11.820Z,4.93
2018-12-10T01:59:44.450Z,4.83
2018-12-10T02:02:15.493Z,5.17
2018-12-10T02:04:46.476Z,5.20
2018-12-10T02:07:17.946Z,4.90
2018-12-10T02:09:49.941Z,5.00
2018-12-10T02:12:21.801Z,5.20
2018-12-10T02:14:54.073Z,5.20
2018-12-10T02:17:27.220Z,4.80
2018-12-10T02:19:58.468Z,4.90
2018-12-10T02:22:30.071Z,4.47
2018-12-10T02:25:01.642Z,4.53
2018-12-10T02:27:33.123Z,4.47
2018-12-10T02:30:06.148Z,4.87
2018-12-10T02:32:37.962Z,4.97
2018-12-10T02:35:10.248Z,5.20
2018-12-10T02:37:42.886Z,5.23
2018-12-10T02:40:14.001Z,4.70
2018-12-10T02:42:46.163Z,4.30
2018-12-10T02:45:17.507Z,4.57
2018-12-10T02:47:48.938Z,4.47
2018-12-10T02:50:20.973Z,4.50
2018-12-10T02:52:52.600Z,4.60
2018-12-10T02:55:23.953Z,4.47
2018-12-10T02:57:55.665Z,4.30
2018-12-10T03:00:26.622Z,4.60
2018-12-10T03:02:57.800Z,4.53
2018-12-10T03:05:29.018Z,5.50
2018-12-10T03:08:00.985Z,4.77
2018-12-10T03:10:33.798Z,4.03
2018-12-10T03:13:06.350Z,4.43
2018-12-10T03:15:39.614Z,4.80
2018-12-10T03:18:11.368Z,4.87
2018-12-10T03:20:43.163Z,5.00
2018-12-10T03:23:16.246Z,4.77
2018-12-10T03:25:48.261Z,5.00
2018-12-10T03:28:20.112Z,5.90
2018-12-10T03:30:52.243Z,4.83
2018-12-10T03:33:24.030Z,4.83
2018-12-10T03:35:55.843Z,4.83
2018-12-10T03:38:27.630Z,4.00
2018-12-10T03:40:59.080Z,4.73
2018-12-10T03:43:30.732Z,5.00
2018-12-10T03:46:02.564Z,5.37
2018-12-10T03:48:34.139Z,5.50
2018-12-10T03:51:09.284Z,5.27
2018-12-10T03:53:40.941Z,5.07
2018-12-10T03:56:12.646Z,6.83
2018-12-10T03:58:43.887Z,5.20
2018-12-10T04:01:15.035Z,4.87
2018-12-10T04:03:48.756Z,5.20
2018-12-10T04:06:20.123Z,4.80
2018-12-10T04:08:51.511Z,4.40
2018-12-10T04:11:23.485Z,5.27
2018-12-10T04:13:54.377Z,4.80
2018-12-10T04:16:25.714Z,5.40
2018-12-10T04:18:57.401Z,5.33
2018-12-10T04:21:28.606Z,5.90
2018-12-10T04:23:59.561Z,6.70
2018-12-10T04:26:30.346Z,5.43
2018-12-10T04:29:01.840Z,5.90
2018-12-10T04:31:32.605Z,5.90
2018-12-10T04:34:04.160Z,5.60
2018-12-10T04:36:35.080Z,5.20
2018-12-10T04:39:08.681Z,5.33
2018-12-10T04:41:39.808Z,5.50
2018-12-10T04:44:11.117Z,4.93
2018-12-10T04:46:41.789Z,5.47
2018-12-10T04:49:13.404Z,5.00
2018-12-10T04:51:45.604Z,6.07
2018-12-10T04:54:16.656Z,5.13
2018-12-10T04:56:47.897Z,6.10
2018-12-10T04:59:23.202Z,5.60
2018-12-10T05:01:56.641Z,5.10
2018-12-10T05:04:28.041Z,5.57
2018-12-10T05:06:59.122Z,5.97
2018-12-10T05:09:31.213Z,4.80
2018-12-10T05:12:02.702Z,5.30
2018-12-10T05:14:34.523Z,5.23
2018-12-10T05:17:05.486Z,5.00
2018-12-10T05:19:37.167Z,6.47
2018-12-10T05:22:07.970Z,4.43
2018-12-10T05:24:39.321Z,5.87
2018-12-10T05:27:11.013Z,4.70
2018-12-10T05:29:42.924Z,4.90
2018-12-10T05:32:15.168Z,5.53
2018-12-10T05:34:46.799Z,5.20
2018-12-10T05:37:18.616Z,4.60
2018-12-10T05:39:49.242Z,5.43
2018-12-10T05:42:20.317Z,5.10
2018-12-10T05:44:51.723Z,4.60
2018-12-10T05:47:22.996Z,4.77
2018-12-10T05:49:54.482Z,4.10
2018-12-10T05:52:25.746Z,3.60
2018-12-10T05:54:56.716Z,3.70
2018-12-10T05:57:29.160Z,3.13
2018-12-10T06:00:00.137Z,2.80
2018-12-10T06:02:32.092Z,3.83
2018-12-10T06:05:03.875Z,3.10
2018-12-10T06:07:35.047Z,3.10
2018-12-10T06:10:07.090Z,3.80
2018-12-10T06:12:38.586Z,2.60
2018-12-10T06:15:10.106Z,2.73
2018-12-10T06:17:41.755Z,2.93
2018-12-10T06:20:13.213Z,3.53
2018-12-10T06:22:45.728Z,3.83
2018-12-10T06:25:17.625Z,3.90
2018-12-10T06:27:49.001Z,3.47
2018-12-10T06:30:20.279Z,3.77
2018-12-10T06:32:53.352Z,4.07
2018-12-10T06:35:25.240Z,3.80
2018-12-10T06:37:57.204Z,3.80
2018-12-10T06:40:28.241Z,3.90
2018-12-10T06:42:59.396Z,3.90
2018-12-10T06:45:31.270Z,3.50
2018-12-10T06:48:03.233Z,14.30
2018-12-10T06:50:34.996Z,7.73
2018-12-10T06:53:06.842Z,5.90
2018-12-10T06:55:38.437Z,6.10
2018-12-10T06:58:10.784Z,5.83
2018-12-10T07:00:42.948Z,4.80
2018-12-10T07:03:14.672Z,5.13
2018-12-10T07:05:45.983Z,4.70
2018-12-10T07:08:18.229Z,4.70
2018-12-10T07:10:50.666Z,4.20
2018-12-10T07:13:22.682Z,5.10
2018-12-10T07:15:55.172Z,6.50
2018-12-10T07:18:26.394Z,5.00
2018-12-10T07:20:59.830Z,6.30
2018-12-10T07:23:32.326Z,8.50
2018-12-10T07:26:04.041Z,7.30
2018-12-10T07:28:37.819Z,10.20
2018-12-10T07:31:08.877Z,5.80
2018-12-10T07:33:40.286Z,4.30
2018-12-10T07:36:10.901Z,5.57
2018-12-10T07:38:43.484Z,4.50
2018-12-10T07:41:15.276Z,4.27
2018-12-10T07:43:47.339Z,6.60
2018-12-10T07:46:18.242Z,5.80
2018-12-10T07:48:49.946Z,4.33
2018-12-10T07:51:21.456Z,5.90
2018-12-10T07:53:53.055Z,4.87
2018-12-10T07:56:29.017Z,6.07
2018-12-10T07:58:57.714Z,8.03
2018-12-10T08:01:29.037Z,5.80
2018-12-10T08:04:01.171Z,5.47
2018-12-10T08:06:32.471Z,4.87
2018-12-10T08:09:05.927Z,4.70
2018-12-10T08:11:37.502Z,5.00
2018-12-10T08:14:10.107Z,4.60
2018-12-10T08:16:41.596Z,4.40
2018-12-10T08:19:12.453Z,4.20
2018-12-10T08:21:44.626Z,5.60
2018-12-10T08:24:16.357Z,5.53
2018-12-10T08:26:47.804Z,4.70
2018-12-10T08:29:19.578Z,5.70
2018-12-10T08:31:51.602Z,5.93
2018-12-10T08:34:22.450Z,7.60
2018-12-10T08:36:55.674Z,9.10
2018-12-10T08:39:27.756Z,10.60
2018-12-10T08:41:58.368Z,11.30
2018-12-10T08:44:29.573Z,13.17
2018-12-10T08:47:01.090Z,14.00
2018-12-10T08:49:32.309Z,14.47
2018-12-10T08:52:04.071Z,13.57
2018-12-10T08:54:35.608Z,14.93
2018-12-10T08:58:11.604Z,14.17
2018-12-10T09:00:44.276Z,14.70
2018-12-10T09:03:15.098Z,14.37
2018-12-10T09:05:46.614Z,13.10
2018-12-10T09:08:17.959Z,13.33
2018-12-10T09:10:50.128Z,12.83
2018-12-10T09:13:21.816Z,13.20
2018-12-10T09:15:53.712Z,12.30
2018-12-10T09:18:25.004Z,12.50
2018-12-10T09:20:57.628Z,11.97
2018-12-10T09:23:28.806Z,12.00
2018-12-10T09:25:59.915Z,11.47
2018-12-10T09:28:31.453Z,11.87
2018-12-10T09:31:02.608Z,12.33
2018-12-10T09:33:34.726Z,12.33
2018-12-10T09:36:06.415Z,12.37
2018-12-10T09:38:38.854Z,11.70
2018-12-10T09:41:09.819Z,12.20
2018-12-10T09:43:42.161Z,13.73
2018-12-10T09:46:14.367Z,13.10
2018-12-10T09:48:45.986Z,12.03
2018-12-10T09:51:18.527Z,12.43
2018-12-10T09:53:50.468Z,11.97
2018-12-10T09:56:22.130Z,12.47
2018-12-10T09:58:54.080Z,12.83
2018-12-10T10:01:26.195Z,13.77
2018-12-10T10:03:59.984Z,13.30
2018-12-10T10:06:31.376Z,13.30
2018-12-10T10:09:02.773Z,12.67
2018-12-10T10:11:34.540Z,13.30
2018-12-10T10:14:06.248Z,13.70
2018-12-10T10:16:38.008Z,12.93
2018-12-10T10:19:09.623Z,12.97
2018-12-10T10:21:45.089Z,13.30
2018-12-10T10:24:16.655Z,12.20
2018-12-10T10:26:48.067Z,12.07
2018-12-10T10:29:19.694Z,11.30
2018-12-10T10:31:52.550Z,13.73
2018-12-10T10:34:23.803Z,13.53
2018-12-10T10:36:55.835Z,14.03
2018-12-10T10:39:27.402Z,13.53
2018-12-10T10:41:59.966Z,13.47
2018-12-10T10:44:32.991Z,13.73
2018-12-10T10:47:04.148Z,14.03
2018-12-10T10:49:35.044Z,12.50
2018-12-10T10:52:07.027Z,13.30
2018-12-10T10:54:38.498Z,12.70
2018-12-10T10:57:10.117Z,12.67
2018-12-10T10:59:42.489Z,12.50
2018-12-10T11:02:21.622Z,12.83
2018-12-10T11:04:55.361Z,11.83
2018-12-10T11:07:28.010Z,12.50
2018-12-10T11:10:00.462Z,11.13
2018-12-10T11:12:31.657Z,11.37
2018-12-10T11:15:02.804Z,10.87
2018-12-10T11:17:34.579Z,9.60
2018-12-10T11:20:06.410Z,10.77
2018-12-10T11:22:37.903Z,11.60
2018-12-10T11:25:09.096Z,13.37
2018-12-10T11:27:40.041Z,13.87
2018-12-10T11:30:11.601Z,14.03
2018-12-10T11:32:42.825Z,14.40
2018-12-10T11:35:14.441Z,14.40
2018-12-10T11:37:45.775Z,13.60
2018-12-10T11:40:22.132Z,14.37
2018-12-10T11:42:54.200Z,13.57
2018-12-10T11:45:25.467Z,14.00
2018-12-10T11:47:57.638Z,13.37
2018-12-10T11:50:29.193Z,12.60
2018-12-10T11:53:03.161Z,11.30
2018-12-10T11:55:35.599Z,10.50
2018-12-10T11:58:07.429Z,8.47
2018-12-10T12:00:40.163Z,10.23
2018-12-10T12:03:10.966Z,11.67
2018-12-10T12:05:43.289Z,12.80
2018-12-10T12:08:14.360Z,13.50
2018-12-10T12:10:46.359Z,13.60
2018-12-10T12:13:18.054Z,13.40
2018-12-10T12:15:50.058Z,14.90
2018-12-10T12:18:21.399Z,14.40
2018-12-10T12:20:52.563Z,14.83
2018-12-10T12:23:23.656Z,14.10
2018-12-10T12:25:55.450Z,14.17
2018-12-10T12:28:27.068Z,15.20
2018-12-10T12:30:58.967Z,14.17
2018-12-10T12:33:30.284Z,13.80
2018-12-10T12:36:02.364Z,14.10
2018-12-10T12:38:33.155Z,14.40
2018-12-10T12:41:04.508Z,13.17
2018-12-10T12:43:36.211Z,14.50
2018-12-10T12:46:06.849Z,14.00
2018-12-10T12:48:37.772Z,13.53
2018-12-10T12:51:08.242Z,14.50
2018-12-10T12:53:39.324Z,14.50
2018-12-10T12:56:09.842Z,13.90
2018-12-10T12:58:41.334Z,14.40
2018-12-10T13:01:12.528Z,13.90
2018-12-10T13:03:43.396Z,14.30
2018-12-10T13:06:15.093Z,15.10
2018-12-10T13:08:48.323Z,14.10
2018-12-10T13:11:20.291Z,14.33
2018-12-10T13:13:51.294Z,13.93
2018-12-10T13:16:22.305Z,14.13
2018-12-10T13:19:02.708Z,14.50
2018-12-10T13:21:33.757Z,13.90
2018-12-10T13:24:04.523Z,13.53
2018-12-10T13:26:35.931Z,14.27
2018-12-10T13:29:08.064Z,13.67
2018-12-10T13:31:40.069Z,13.83
2018-12-10T13:34:11.482Z,14.13
2018-12-10T13:36:43.532Z,13.80
2018-12-10T13:39:15.083Z,13.50
2018-12-10T13:41:46.122Z,13.57
2018-12-10T13:44:17.240Z,13.57
2018-12-10T13:46:49.439Z,13.10
2018-12-10T13:49:20.839Z,13.67
2018-12-10T13:51:51.839Z,13.07
2018-12-10T13:54:23.620Z,13.70
2018-12-10T13:56:55.122Z,12.93
2018-12-10T13:59:26.231Z,12.87
2018-12-10T14:01:57.882Z,13.40
2018-12-10T14:04:33.379Z,13.27
2018-12-10T14:07:05.803Z,13.10
2018-12-10T14:09:36.887Z,12.80
2018-12-10T14:12:08.145Z,13.20
2018-12-10T14:14:39.606Z,13.30
2018-12-10T14:17:11.097Z,13.00
2018-12-10T14:19:42.936Z,11.43
2018-12-10T14:22:14.688Z,12.13
2018-12-10T14:24:47.054Z,11.17
2018-12-10T14:27:19.394Z,11.60
2018-12-10T14:29:51.264Z,10.23
2018-12-10T14:32:22.506Z,11.00
2018-12-10T14:34:54.153Z,11.17
2018-12-10T14:37:26.049Z,11.33
2018-12-10T14:39:57.774Z,11.43
2018-12-10T14:42:29.203Z,11.10
2018-12-10T14:45:00.682Z,12.57
2018-12-10T14:47:31.728Z,10.37
2018-12-10T14:50:03.041Z,9.83
2018-12-10T14:52:34.820Z,10.80
2018-12-10T14:55:07.239Z,10.87
2018-12-10T14:57:38.774Z,9.97
2018-12-10T15:00:12.572Z,10.10
2018-12-10T15:02:45.773Z,10.00
2018-12-10T15:05:17.842Z,10.00
2018-12-10T15:07:49.194Z,9.47
2018-12-10T15:10:23.314Z,10.30
2018-12-10T15:12:53.855Z,8.77
2018-12-10T15:15:25.522Z,9.27
2018-12-10T15:17:56.795Z,10.60
2018-12-10T15:20:29.895Z,10.30
2018-12-10T15:23:02.159Z,9.97
2018-12-10T15:25:34.042Z,10.57
2018-12-10T15:28:06.807Z,10.00
2018-12-10T15:30:39.102Z,9.30
2018-12-10T15:33:10.784Z,9.83
2018-12-10T15:35:42.992Z,10.47
2018-12-10T15:38:14.838Z,10.00
2018-12-10T15:40:47.133Z,10.20
2018-12-10T15:43:19.884Z,9.63
2018-12-10T15:45:52.584Z,10.87
2018-12-10T15:48:24.842Z,10.33
2018-12-10T15:50:56.482Z,9.50
2018-12-10T15:53:28.490Z,9.73
2018-12-10T15:56:00.557Z,9.00
2018-12-10T15:58:32.842Z,9.00
2018-12-10T16:01:04.919Z,8.40
2018-12-10T16:03:37.750Z,9.10
2018-12-10T16:06:10.377Z,9.83
2018-12-10T16:08:43.894Z,10.27
2018-12-10T16:11:16.562Z,8.50
2018-12-10T16:13:48.845Z,9.27
2018-12-10T16:16:22.210Z,9.80
2018-12-10T16:18:55.478Z,8.83
2018-12-10T16:21:28.130Z,8.70
2018-12-10T16:24:00.858Z,10.60
2018-12-10T16:26:33.554Z,9.47
2018-12-10T16:29:06.950Z,9.87
2018-12-10T16:31:39.339Z,10.00
2018-12-10T16:34:11.292Z,9.73
2018-12-10T16:36:43.305Z,9.80
2018-12-10T16:39:15.683Z,9.37
2018-12-10T16:41:47.897Z,10.33
2018-12-10T16:44:20.320Z,9.83
2018-12-10T16:46:52.303Z,10.07
2018-12-10T16:49:24.052Z,9.07
2018-12-10T16:51:56.261Z,9.50
2018-12-10T16:54:28.564Z,9.70
2018-12-10T16:57:02.804Z,10.50
2018-12-10T16:59:36.539Z,10.90
2018-12-10T17:02:10.830Z,10.60
2018-12-10T17:04:45.696Z,10.00
2018-12-10T17:07:18.248Z,10.70
2018-12-10T17:09:51.396Z,10.40
2018-12-10T17:12:23.836Z,11.83
2018-12-10T17:14:56.157Z,10.60
2018-12-10T17:17:28.794Z,10.07
2018-12-10T17:20:01.248Z,10.50
2018-12-10T17:22:33.860Z,10.17
2018-12-10T17:25:06.405Z,9.30
2018-12-10T17:27:39.200Z,10.40
2018-12-10T17:30:11.303Z,10.00
2018-12-10T17:32:43.720Z,10.60
2018-12-10T17:35:14.782Z,9.97
2018-12-10T17:37:46.206Z,11.60
2018-12-10T17:40:17.307Z,10.10
2018-12-10T17:42:48.561Z,9.57
2018-12-10T17:45:20.813Z,10.83
2018-12-10T17:47:52.764Z,11.00
2018-12-10T17:50:25.454Z,10.07
2018-12-10T17:52:59.214Z,10.60
2018-12-10T17:55:30.561Z,9.63
2018-12-10T17:58:02.257Z,10.30
2018-12-10T18:00:34.133Z,8.30
2018-12-10T18:03:07.497Z,8.73
2018-12-10T18:05:40.320Z,9.37
2018-12-10T18:08:14.796Z,9.67
2018-12-10T18:10:48.267Z,9.03
2018-12-10T18:13:20.795Z,7.77
2018-12-10T18:15:55.080Z,8.83
2018-12-10T18:18:28.680Z,10.87
2018-12-10T18:21:01.578Z,7.40
2018-12-10T18:23:36.208Z,7.90
2018-12-10T18:26:09.395Z,7.80
2018-12-10T18:28:41.893Z,7.17
2018-12-10T18:31:14.390Z,8.57
2018-12-10T18:33:48.640Z,8.73
2018-12-10T18:36:22.082Z,9.17
2018-12-10T18:38:53.902Z,9.10
2018-12-10T18:41:28.792Z,8.30
2018-12-10T18:44:02.911Z,7.57
2018-12-10T18:46:36.396Z,7.62
2018-12-10T18:49:10.001Z,8.13
2018-12-10T18:51:44.331Z,7.80
2018-12-10T18:54:17.541Z,8.57
2018-12-10T18:56:52.417Z,7.40
2018-12-10T18:59:26.723Z,6.87
2018-12-10T19:02:00.136Z,7.70
2018-12-10T19:04:32.324Z,6.30
2018-12-10T19:07:04.842Z,7.90
2018-12-10T19:09:38.920Z,7.20
2018-12-10T19:12:11.436Z,6.83
2018-12-10T19:14:46.206Z,7.83
2018-12-10T19:17:20.367Z,8.00
2018-12-10T19:19:54.046Z,7.53
2018-12-10T19:22:26.750Z,6.90
2018-12-10T19:25:00.029Z,6.23
2018-12-10T19:27:33.489Z,8.47
2018-12-10T19:30:06.362Z,6.93
2018-12-10T19:32:37.971Z,7.20
2018-12-10T19:35:12.904Z,8.53
2018-12-10T19:37:46.133Z,7.17
2018-12-10T19:40:20.194Z,8.70
2018-12-10T19:42:53.881Z,9.43
2018-12-10T19:45:26.492Z,9.25
2018-12-10T19:47:59.530Z,10.37
2018-12-10T19:50:32.712Z,8.73
2018-12-10T19:53:05.459Z,9.43
2018-12-10T19:55:37.792Z,8.33
2018-12-10T19:58:11.515Z,8.45
2018-12-10T20:00:43.124Z,8.00
2018-12-10T20:03:14.289Z,8.00
2018-12-10T20:05:50.360Z,9.67
2018-12-10T20:08:21.749Z,8.87
2018-12-10T20:10:53.798Z,9.37
2018-12-10T20:13:25.149Z,8.97
2018-12-10T20:15:56.270Z,9.63
2018-12-10T20:18:29.146Z,8.80
2018-12-10T20:21:00.728Z,9.80
2018-12-10T20:23:32.409Z,8.00
2018-12-10T20:26:03.641Z,9.07
2018-12-10T20:28:34.974Z,7.43
2018-12-10T20:31:06.198Z,8.33
2018-12-10T20:33:37.315Z,8.30
2018-12-10T20:36:08.824Z,7.63
2018-12-10T20:38:41.201Z,8.80
2018-12-10T20:41:12.070Z,8.83
2018-12-10T20:43:43.117Z,7.53
2018-12-10T20:46:14.747Z,7.83
2018-12-10T20:48:45.857Z,7.60
2018-12-10T20:51:17.427Z,6.33
2018-12-10T20:53:48.655Z,7.17
2018-12-10T20:56:19.727Z,7.20
2018-12-10T20:58:56.298Z,7.30
2018-12-10T21:01:30.527Z,7.63
2018-12-10T21:04:02.449Z,6.93
2018-12-10T21:06:38.909Z,7.60
2018-12-10T21:09:11.864Z,7.03
2018-12-10T21:11:45.123Z,7.17
2018-12-10T21:14:18.548Z,7.33
2018-12-10T21:16:52.085Z,8.07
2018-12-10T21:19:24.474Z,8.50
2018-12-10T21:21:56.672Z,7.00
2018-12-10T21:24:29.913Z,8.40
2018-12-10T21:27:02.607Z,7.50
2018-12-10T21:29:36.490Z,8.43
2018-12-10T21:32:08.597Z,8.00
2018-12-10T21:34:40.676Z,7.00
2018-12-10T21:37:12.524Z,7.40
2018-12-10T21:39:45.652Z,7.00
2018-12-10T21:42:18.955Z,7.00
2018-12-10T21:44:51.073Z,6.80
2018-12-10T21:47:24.693Z,6.13
2018-12-10T21:49:57.876Z,6.70
2018-12-10T21:52:30.089Z,7.20
2018-12-10T21:55:02.214Z,6.70
2018-12-10T21:57:34.518Z,6.23
2018-12-10T22:00:06.769Z,6.27
2018-12-10T22:02:38.828Z,6.47
2018-12-10T22:05:09.685Z,7.13
2018-12-10T22:07:42.818Z,7.67
2018-12-10T22:10:14.154Z,7.40
2018-12-10T22:12:45.653Z,8.00
2018-12-10T22:15:16.697Z,7.33
2018-12-10T22:17:48.045Z,7.70
2018-12-10T22:20:19.949Z,7.50
2018-12-10T22:22:52.601Z,7.37
2018-12-10T22:25:23.962Z,7.97
2018-12-10T22:27:55.617Z,8.40
2018-12-10T22:30:28.360Z,6.70
2018-12-10T22:33:00.585Z,8.10
2018-12-10T22:35:32.414Z,6.97
2018-12-10T22:38:04.366Z,6.67
2018-12-10T22:40:35.841Z,7.10
2018-12-10T22:43:06.772Z,7.60
2018-12-10T22:45:38.630Z,6.50
2018-12-10T22:48:09.925Z,6.60
2018-12-10T22:50:41.054Z,7.70
2018-12-10T22:53:12.241Z,7.00
2018-12-10T22:55:43.434Z,7.30
2018-12-10T22:58:14.716Z,8.50
2018-12-10T23:00:53.050Z,7.17
2018-12-10T23:03:24.348Z,7.70
2018-12-10T23:05:55.516Z,7.57
2018-12-10T23:08:28.190Z,7.57
2018-12-10T23:11:00.204Z,7.60
2018-12-10T23:13:32.268Z,7.37
2018-12-10T23:16:05.001Z,7.30
2018-12-10T23:18:36.269Z,7.60
2018-12-10T23:21:07.316Z,9.30
2018-12-10T23:23:38.682Z,7.80
2018-12-10T23:26:10.123Z,7.37
2018-12-10T23:28:41.797Z,7.00
2018-12-10T23:31:13.751Z,6.60
2018-12-10T23:33:45.843Z,7.17
2018-12-10T23:36:16.931Z,5.63
2018-12-10T23:38:48.161Z,6.60
2018-12-10T23:41:19.493Z,6.60
2018-12-10T23:43:51.132Z,6.33
2018-12-10T23:46:22.566Z,6.27
2018-12-10T23:48:53.646Z,7.30
2018-12-10T23:51:24.865Z,7.07
2018-12-10T23:53:56.196Z,6.80
2018-12-10T23:56:27.921Z,7.50
2018-12-10T23:58:59.925Z,6.67
